Time;durP1;ratioP1;P1;durP2;ratioP2;P2;SDS_P1;SDS_P2;PMS_P1;PMS_P2;Temp;Humidity;BMP_temperature;BMP_pressure;BME280_temperature;BME280_humidity;BME280_pressure;Samples;Min_cycle;Max_cycle;Signal;HPM_P1;HPM_P2
2024/04/20 00:02:02;;;;;;;11.73;1.30;;;;;;;15.98;46.40;100819.00;7392074;19;20014;-57
2024/04/20 00:04:28;;;;;;;6.20;2.58;;;;;;;15.87;46.27;100811.94;7397012;19;20462;-57
2024/04/20 00:06:54;;;;;;;4.15;1.80;;;;;;;16.29;46.05;100819.94;7392122;19;20014;-57
2024/04/20 00:09:20;;;;;;;1.50;1.40;;;;;;;16.21;45.74;100818.81;7392725;19;20124;-57
2024/04/20 00:11:46;;;;;;;1.23;1.13;;;;;;;15.90;46.33;100813.00;7392501;19;20010;-57
2024/04/20 00:14:12;;;;;;;0.85;0.85;;;;;;;16.40;45.22;100803.22;7394793;19;20118;-57
2024/04/20 00:16:38;;;;;;;0.45;0.45;;;;;;;16.31;45.29;100811.78;7396120;19;20011;-57
2024/04/20 00:19:04;;;;;;;0.70;0.70;;;;;;;16.06;45.78;100808.91;7393829;19;20010;-57
2024/04/20 00:21:31;;;;;;;0.95;0.80;;;;;;;15.93;45.75;100806.44;7393726;19;20063;-57
2024/04/20 00:23:57;;;;;;;1.25;1.23;;;;;;;15.89;45.66;100814.28;7393075;19;20018;-57
2024/04/20 00:26:23;;;;;;;0.40;0.40;;;;;;;15.83;46.14;100822.63;7391633;19;20015;-57
2024/04/20 00:29:29;;;;;;;0.77;0.77;;;;;;;15.90;46.08;100829.88;7392398;19;20347;-62
2024/04/20 00:31:55;;;;;;;0.40;0.40;;;;;;;15.90;46.10;100832.69;7391005;19;20014;-68
2024/04/20 00:34:21;;;;;;;3.15;1.13;;;;;;;15.89;46.18;100834.75;7389767;19;20340;-68
2024/04/20 00:36:51;;;;;;;0.90;0.90;;;;;;;15.45;46.57;100838.88;7391789;19;20014;-69
2024/04/20 00:39:18;;;;;;;15.38;2.25;;;;;;;15.19;47.29;100839.44;7390817;19;20454;-68
2024/04/20 00:41:48;;;;;;;1.30;1.30;;;;;;;15.26;47.05;100840.28;7391094;19;20021;-68
2024/04/20 00:44:15;;;;;;;0.32;0.32;;;;;;;15.73;46.36;100837.28;7389128;19;20011;-68
2024/04/20 00:46:43;;;;;;;1.90;0.65;;;;;;;15.89;46.48;100836.75;7389650;19;20343;-68
2024/04/20 00:49:10;;;;;;;0.70;0.70;;;;;;;15.76;46.05;100828.66;7388456;19;20015;-69
2024/04/20 00:51:37;;;;;;;0.93;0.93;;;;;;;15.58;46.08;100836.53;7392606;19;20074;-68
2024/04/20 00:54:04;;;;;;;1.00;0.85;;;;;;;15.41;46.26;100841.84;7390683;19;20336;-68
2024/04/20 00:56:31;;;;;;;1.42;1.33;;;;;;;15.22;46.19;100845.34;7392028;19;20087;-69
2024/04/20 00:58:58;;;;;;;1.05;1.05;;;;;;;15.14;45.80;100851.31;7391239;19;20003;-68
2024/04/20 01:01:25;;;;;;;0.80;0.80;;;;;;;15.00;46.37;100852.09;7391178;19;20024;-68
2024/04/20 01:03:51;;;;;;;2.20;0.50;;;;;;;15.12;46.28;100858.66;7392292;19;20006;-69
2024/04/20 01:06:17;;;;;;;0.52;0.52;;;;;;;15.15;46.61;100850.06;7389924;19;20021;-68
2024/04/20 01:08:43;;;;;;;0.60;0.60;;;;;;;15.06;46.98;100864.19;7391954;19;20373;-68
2024/04/20 01:11:11;;;;;;;1.05;0.95;;;;;;;15.12;47.11;100859.44;7390088;19;20043;-68
2024/04/20 01:13:37;;;;;;;0.70;0.70;;;;;;;15.41;46.06;100855.09;7391691;19;20006;-68
2024/04/20 01:16:03;;;;;;;0.68;0.68;;;;;;;15.30;46.47;100852.09;7390740;19;20014;-68
2024/04/20 01:18:30;;;;;;;1.08;1.08;;;;;;;15.34;46.29;100855.47;7395881;19;20362;-68
2024/04/20 01:20:56;;;;;;;3.92;1.42;;;;;;;15.12;46.44;100859.44;7390401;19;20038;-68
2024/04/20 01:23:23;;;;;;;0.98;0.90;;;;;;;15.09;45.98;100857.59;7389589;19;20029;-69
2024/04/20 01:25:50;;;;;;;1.00;1.00;;;;;;;14.76;46.21;100868.19;7393788;19;20019;-69
2024/04/20 01:28:17;;;;;;;0.95;0.95;;;;;;;14.41;46.54;100870.78;7392395;19;20052;-57
2024/04/20 01:30:43;;;;;;;2.65;0.88;;;;;;;14.52;46.74;100870.25;7387815;19;20019;-57
2024/04/20 01:33:10;;;;;;;0.75;0.75;;;;;;;14.51;47.17;100873.53;7391938;19;20707;-57
2024/04/20 01:35:40;;;;;;;0.90;0.90;;;;;;;14.60;46.86;100884.66;7389376;19;20014;-57
2024/04/20 01:38:07;;;;;;;0.55;0.55;;;;;;;14.59;47.07;100878.31;7391918;19;20070;-57
2024/04/20 01:40:34;;;;;;;0.68;0.68;;;;;;;14.59;47.16;100877.53;7390338;19;20014;-57
2024/04/20 01:43:00;;;;;;;0.80;0.80;;;;;;;14.55;46.98;100872.09;7389839;19;20014;-57
2024/04/20 01:45:26;;;;;;;4.50;1.20;;;;;;;14.52;46.99;100883.47;7388944;19;20027;-57
2024/04/20 01:47:52;;;;;;;0.88;0.88;;;;;;;14.66;46.68;100889.13;7394650;19;20038;-57
2024/04/20 01:50:18;;;;;;;0.65;0.65;;;;;;;14.42;46.59;100885.59;7388487;19;20013;-57
2024/04/20 01:52:44;;;;;;;6.63;2.67;;;;;;;14.10;47.38;100886.34;7390845;19;20470;-57
2024/04/20 01:55:11;;;;;;;0.77;0.77;;;;;;;14.02;47.51;100901.94;7390638;19;20336;-57
2024/04/20 01:57:37;;;;;;;1.15;1.00;;;;;;;14.07;47.39;100899.28;7389823;19;20010;-56
2024/04/20 02:00:04;;;;;;;8.52;0.63;;;;;;;14.13;47.55;100896.63;7390190;19;20039;-57
2024/04/20 02:02:30;;;;;;;0.63;0.63;;;;;;;13.98;47.95;100890.94;7389755;19;20455;-57
2024/04/20 02:04:56;;;;;;;1.17;0.95;;;;;;;13.96;47.82;100887.06;7391266;19;20115;-57
2024/04/20 02:07:23;;;;;;;0.35;0.35;;;;;;;14.26;47.04;100883.16;7389903;19;20027;-56
2024/04/20 02:09:50;;;;;;;0.52;0.52;;;;;;;14.39;46.64;100886.53;7388428;19;20014;-57
2024/04/20 02:12:16;;;;;;;0.45;0.45;;;;;;;14.77;45.78;100897.78;7395954;19;20015;-57
2024/04/20 02:14:42;;;;;;;0.70;0.70;;;;;;;14.58;45.93;100896.38;7397480;19;20479;-56
2024/04/20 02:17:08;;;;;;;0.75;0.75;;;;;;;13.69;47.72;100905.50;7398270;19;20011;-57
2024/04/20 02:19:34;;;;;;;1.10;1.10;;;;;;;14.35;47.11;100897.16;7397576;19;20570;-56
2024/04/20 02:22:00;;;;;;;9.43;1.50;;;;;;;14.24;47.03;100902.47;7395004;19;20011;-57
2024/04/20 02:24:26;;;;;;;0.50;0.50;;;;;;;14.00;47.46;100910.06;7398216;19;20104;-57
2024/04/20 02:26:53;;;;;;;0.68;0.68;;;;;;;14.03;47.93;100895.13;7399307;19;20011;-57
2024/04/20 02:29:19;;;;;;;0.52;0.52;;;;;;;13.77;47.80;100902.38;7396530;19;20022;-57
2024/04/20 02:31:45;;;;;;;0.80;0.80;;;;;;;13.87;47.71;100901.09;7395691;19;20011;-57
2024/04/20 02:34:11;;;;;;;0.57;0.57;;;;;;;13.89;47.49;100898.59;7396290;19;20014;-57
2024/04/20 02:36:37;;;;;;;3.13;1.30;;;;;;;14.26;47.04;100903.56;7397484;19;20010;-57
2024/04/20 02:39:04;;;;;;;0.68;0.68;;;;;;;14.16;46.99;100913.22;7394959;19;20021;-57
2024/04/20 02:41:30;;;;;;;0.47;0.47;;;;;;;14.38;46.43;100913.00;7397160;19;20035;-57
2024/04/20 02:43:56;;;;;;;0.52;0.52;;;;;;;13.96;46.89;100910.25;7395581;19;20014;-57
2024/04/20 02:46:22;;;;;;;1.23;0.70;;;;;;;14.12;47.03;100923.09;7396434;19;20011;-57
2024/04/20 02:48:48;;;;;;;0.93;0.93;;;;;;;14.18;46.80;100921.97;7394757;19;20365;-57
2024/04/20 02:51:14;;;;;;;0.68;0.68;;;;;;;14.17;46.84;100922.41;7396404;19;20015;-57
2024/04/20 02:53:40;;;;;;;0.52;0.52;;;;;;;14.05;47.15;100931.81;7394666;19;20010;-57
2024/04/20 02:56:06;;;;;;;0.73;0.73;;;;;;;14.09;47.03;100924.03;7396168;19;20014;-56
2024/04/20 02:58:33;;;;;;;0.68;0.68;;;;;;;14.23;47.17;100928.91;7395328;19;20014;-57
2024/04/20 03:01:00;;;;;;;1.02;1.02;;;;;;;14.12;47.07;100937.09;7395277;19;20015;-57
2024/04/20 03:03:28;;;;;;;0.70;0.70;;;;;;;14.25;47.01;100943.25;7394379;19;20031;-56
2024/04/20 03:05:54;;;;;;;0.80;0.80;;;;;;;14.09;46.67;100938.81;7396392;19;20018;-56
2024/04/20 03:08:20;;;;;;;0.82;0.82;;;;;;;13.96;46.94;100943.84;7394868;19;20011;-57
2024/04/20 03:10:46;;;;;;;0.90;0.90;;;;;;;14.13;46.78;100936.63;7391951;19;20024;-57
2024/04/20 03:13:13;;;;;;;3.75;1.48;;;;;;;14.60;45.72;100947.13;7398408;19;20066;-56
2024/04/20 03:15:43;;;;;;;16.98;2.08;;;;;;;14.45;46.10;100943.47;7396073;19;20485;-56
2024/04/20 03:18:10;;;;;;;0.32;0.32;;;;;;;14.73;45.85;100944.84;7398364;19;20019;-56
2024/04/20 03:20:37;;;;;;;1.10;0.98;;;;;;;14.88;45.54;100956.13;7396133;19;20017;-56
2024/04/20 03:23:03;;;;;;;0.68;0.68;;;;;;;14.96;45.10;100951.72;7394438;19;20526;-56
2024/04/20 03:25:29;;;;;;;0.40;0.40;;;;;;;14.76;45.22;100949.53;7396788;19;20022;-56
2024/04/20 03:27:55;;;;;;;1.75;1.17;;;;;;;14.91;45.19;100967.19;7393880;19;20017;-56
2024/04/20 03:30:22;;;;;;;1.52;1.42;;;;;;;14.90;45.12;100964.84;7392147;19;20336;-56
2024/04/20 03:32:48;;;;;;;1.95;1.40;;;;;;;14.10;46.02;100976.78;7395965;19;20007;-56
2024/04/20 03:35:14;;;;;;;0.95;0.95;;;;;;;13.94;46.68;100979.16;7397452;19;20340;-56
2024/04/20 03:37:40;;;;;;;0.52;0.52;;;;;;;14.21;46.48;100970.66;7394852;19;20031;-56
2024/04/20 03:40:07;;;;;;;0.52;0.52;;;;;;;14.70;45.44;100973.88;7393527;19;20022;-56
2024/04/20 03:42:33;;;;;;;1.02;0.98;;;;;;;14.48;45.45;100973.38;7395712;19;20510;-56
2024/04/20 03:44:59;;;;;;;0.22;0.22;;;;;;;14.43;45.55;100976.81;7393494;19;20014;-57
2024/04/20 03:47:26;;;;;;;0.70;0.70;;;;;;;14.71;44.95;100978.22;7398086;19;20067;-57
2024/04/20 03:49:52;;;;;;;0.70;0.70;;;;;;;14.48;45.33;100978.97;7393872;19;20102;-57
2024/04/20 03:52:18;;;;;;;0.45;0.45;;;;;;;14.51;45.09;100988.47;7393505;19;20035;-56
2024/04/20 03:54:44;;;;;;;0.90;0.90;;;;;;;14.29;45.64;100991.53;7392957;19;20042;-57
2024/04/20 03:57:10;;;;;;;1.20;1.20;;;;;;;14.09;45.61;100996.84;7392534;19;20492;-56
2024/04/20 03:59:36;;;;;;;1.05;1.05;;;;;;;14.09;45.64;100997.63;7397650;19;20050;-57
2024/04/20 04:02:03;;;;;;;0.57;0.57;;;;;;;14.15;45.91;101001.34;7393323;19;20070;-57
2024/04/20 04:04:29;;;;;;;0.60;0.60;;;;;;;14.12;46.05;101001.53;7392638;19;20021;-57
2024/04/20 04:06:55;;;;;;;1.42;1.33;;;;;;;14.22;45.83;100997.44;7391070;19;20074;-57
2024/04/20 04:09:21;;;;;;;1.67;1.45;;;;;;;14.34;45.67;100990.88;7394574;19;20017;-57
2024/04/20 04:11:47;;;;;;;3.70;1.13;;;;;;;14.16;45.83;100993.72;7393033;19;20470;-57
2024/04/20 04:14:13;;;;;;;0.75;0.75;;;;;;;14.25;45.67;100988.84;7392992;19;20043;-57
2024/04/20 04:16:40;;;;;;;0.50;0.50;;;;;;;14.20;46.19;100991.53;7394925;19;20418;-57
2024/04/20 04:19:06;;;;;;;0.68;0.68;;;;;;;13.82;46.07;100988.53;7395887;19;20014;-57
2024/04/20 04:21:34;;;;;;;1.00;0.50;;;;;;;13.76;46.79;100996.00;7392322;19;20017;-57
2024/04/20 04:24:00;;;;;;;0.80;0.80;;;;;;;13.64;46.76;101006.91;7391853;19;20019;-57
2024/04/20 04:26:27;;;;;;;0.68;0.68;;;;;;;13.49;46.71;101010.84;7393051;19;20357;-57
2024/04/20 04:28:53;;;;;;;5.78;0.98;;;;;;;13.49;46.69;101014.38;7393580;19;20007;-57
2024/04/20 04:31:22;;;;;;;1.15;1.08;;;;;;;13.49;47.23;101005.22;7392936;19;20011;-57
2024/04/20 04:33:48;;;;;;;0.90;0.90;;;;;;;13.89;46.49;101005.00;7389547;19;20031;-57
2024/04/20 04:36:14;;;;;;;3.40;1.08;;;;;;;14.12;46.37;101013.50;7390701;19;20035;-57
2024/04/20 04:38:40;;;;;;;0.70;0.70;;;;;;;14.22;45.94;101011.44;7392735;19;20106;-57
2024/04/20 04:41:07;;;;;;;0.80;0.80;;;;;;;13.91;45.78;101017.28;7391692;19;20039;-57
2024/04/20 04:43:33;;;;;;;0.50;0.50;;;;;;;13.81;46.31;101017.78;7391636;19;20022;-57
2024/04/20 04:45:59;;;;;;;0.45;0.45;;;;;;;13.91;46.11;101031.28;7392800;19;20014;-57
2024/04/20 04:48:27;;;;;;;0.50;0.50;;;;;;;13.84;45.64;101033.66;7395552;19;20022;-57
2024/04/20 04:50:53;;;;;;;1.10;1.10;;;;;;;14.13;45.31;101025.47;7389389;19;20053;-57
2024/04/20 04:53:19;;;;;;;0.85;0.85;;;;;;;14.29;45.68;101025.16;7392674;19;20480;-57
2024/04/20 04:55:45;;;;;;;1.00;1.00;;;;;;;14.30;45.37;101032.28;7392785;19;20070;-57
2024/04/20 04:58:11;;;;;;;0.47;0.47;;;;;;;14.24;45.50;101031.34;7392808;19;20021;-57
2024/04/20 05:00:38;;;;;;;0.85;0.85;;;;;;;14.31;45.50;101033.88;7391522;19;20023;-57
2024/04/20 05:03:04;;;;;;;0.73;0.73;;;;;;;14.28;45.38;101038.34;7393354;19;20015;-57
2024/04/20 05:05:31;;;;;;;11.30;0.85;;;;;;;14.37;45.12;101043.19;7390954;19;20014;-57
2024/04/20 05:07:57;;;;;;;0.70;0.70;;;;;;;14.35;44.68;101048.47;7391434;19;20019;-57
2024/04/20 05:10:23;;;;;;;0.70;0.70;;;;;;;14.35;45.28;101049.25;7389354;19;20420;-57
2024/04/20 05:12:50;;;;;;;1.88;1.20;;;;;;;14.35;45.04;101045.69;7389611;19;20495;-57
2024/04/20 05:15:17;;;;;;;0.45;0.45;;;;;;;14.42;45.02;101043.28;7393313;19;20043;-57
2024/04/20 05:17:43;;;;;;;1.55;1.02;;;;;;;14.53;45.45;101047.63;7392996;19;20018;-57
2024/04/20 05:20:12;;;;;;;0.77;0.77;;;;;;;14.61;45.27;101043.22;7389143;19;20353;-57
2024/04/20 05:22:39;;;;;;;0.90;0.88;;;;;;;14.42;45.19;101054.50;7390655;19;20018;-57
2024/04/20 05:25:05;;;;;;;1.40;0.77;;;;;;;14.34;45.36;101046.91;7394278;19;20006;-57
2024/04/20 05:27:31;;;;;;;0.70;0.70;;;;;;;14.50;45.19;101060.56;7390122;19;20049;-57
2024/04/20 05:29:57;;;;;;;0.68;0.68;;;;;;;14.52;45.51;101058.06;7390000;19;20026;-57
2024/04/20 05:32:23;;;;;;;0.40;0.40;;;;;;;14.50;45.22;101071.78;7389009;19;20019;-57
2024/04/20 05:34:49;;;;;;;0.47;0.47;;;;;;;14.65;45.01;101066.25;7387798;19;20360;-57
2024/04/20 05:37:15;;;;;;;11.95;0.93;;;;;;;14.58;45.37;101064.56;7394158;19;20090;-57
2024/04/20 05:39:45;;;;;;;3.70;0.80;;;;;;;14.48;45.21;101065.88;7389161;19;20161;-57
2024/04/20 05:42:11;;;;;;;3.63;1.45;;;;;;;14.42;45.32;101070.56;7390081;19;20023;-57
2024/04/20 05:44:37;;;;;;;0.80;0.80;;;;;;;14.75;45.29;101076.94;7388687;19;20108;-57
2024/04/20 05:47:04;;;;;;;1.20;1.10;;;;;;;14.34;45.98;101072.91;7392314;19;20006;-57
2024/04/20 05:49:31;;;;;;;1.23;1.23;;;;;;;14.35;45.74;101082.09;7392195;19;20025;-57
2024/04/20 05:51:57;;;;;;;10.10;0.82;;;;;;;14.33;46.12;101076.19;7389489;19;20035;-57
2024/04/20 05:54:24;;;;;;;0.30;0.30;;;;;;;14.51;46.31;101078.91;7391326;19;20003;-57
2024/04/20 05:56:50;;;;;;;0.77;0.77;;;;;;;14.58;46.24;101078.59;7388398;19;20018;-57
2024/04/20 05:59:16;;;;;;;0.70;0.70;;;;;;;14.57;46.26;101082.66;7390659;19;20018;-57
2024/04/20 06:01:42;;;;;;;0.95;0.95;;;;;;;14.39;46.36;101082.72;7392646;19;20033;-57
2024/04/20 06:04:08;;;;;;;3.13;2.22;;;;;;;14.69;46.03;101090.06;7391444;19;20022;-57
2024/04/20 06:06:34;;;;;;;0.75;0.75;;;;;;;14.60;45.92;101097.72;7388190;19;20022;-57
2024/04/20 06:09:00;;;;;;;1.00;1.00;;;;;;;14.82;45.97;101093.44;7388913;19;20022;-57
2024/04/20 06:11:26;;;;;;;0.75;0.73;;;;;;;15.02;45.66;101102.06;7390018;19;20035;-57
2024/04/20 06:13:52;;;;;;;0.52;0.52;;;;;;;15.11;45.79;101099.22;7391383;19;20416;-57
2024/04/20 06:16:18;;;;;;;0.35;0.35;;;;;;;15.32;45.76;101093.78;7389738;19;20011;-57
2024/04/20 06:18:45;;;;;;;2.22;0.63;;;;;;;15.35;45.92;101095.63;7388408;19;20035;-57
2024/04/20 06:21:11;;;;;;;1.38;1.20;;;;;;;15.24;46.15;101089.78;7390753;19;20018;-57
2024/04/20 06:23:37;;;;;;;0.60;0.60;;;;;;;15.34;46.35;101100.47;7388599;19;20090;-57
2024/04/20 06:26:03;;;;;;;0.93;0.93;;;;;;;15.42;46.15;101100.88;7393021;19;20022;-57
2024/04/20 06:28:30;;;;;;;1.65;1.27;;;;;;;15.46;46.15;101101.50;7387929;19;20011;-57
2024/04/20 06:30:56;;;;;;;1.45;1.10;;;;;;;15.28;46.22;101108.00;7386304;19;20011;-57
2024/04/20 06:33:23;;;;;;;4.13;1.27;;;;;;;15.56;46.16;101117.03;7387992;19;20089;-57
2024/04/20 06:35:49;;;;;;;0.95;0.95;;;;;;;15.94;45.75;101111.41;7390406;19;20479;-57
2024/04/20 06:38:15;;;;;;;0.82;0.80;;;;;;;16.16;45.88;101097.75;7387753;19;20336;-57
2024/04/20 06:40:42;;;;;;;6.13;1.27;;;;;;;16.05;46.15;101114.41;7388518;19;20478;-57
2024/04/20 06:43:08;;;;;;;0.60;0.60;;;;;;;15.94;46.46;101117.00;7388724;19;20018;-57
2024/04/20 06:45:35;;;;;;;3.30;2.17;;;;;;;15.88;46.54;101121.75;7388975;19;20007;-57
2024/04/20 06:48:02;;;;;;;10.68;4.35;;;;;;;15.90;46.83;101133.28;7392971;19;20425;-57
2024/04/20 06:50:28;;;;;;;2.42;1.25;;;;;;;15.93;46.56;101135.16;7386036;19;21021;-57
2024/04/20 06:52:54;;;;;;;1.10;1.10;;;;;;;16.59;46.51;101136.38;7389781;19;20063;-58
2024/04/20 06:55:20;;;;;;;0.65;0.65;;;;;;;16.83;46.18;101121.41;7387770;19;20038;-58
2024/04/20 06:57:46;;;;;;;1.35;1.25;;;;;;;17.21;45.91;101124.81;7392511;19;20002;-57
2024/04/20 07:00:13;;;;;;;1.08;1.02;;;;;;;17.39;45.51;101130.16;7395032;19;20035;-58
2024/04/20 07:02:39;;;;;;;1.70;1.55;;;;;;;17.19;45.73;101135.00;7395443;19;20014;-58
2024/04/20 07:05:06;;;;;;;0.60;0.60;;;;;;;16.91;45.97;101136.63;7396671;19;20015;-58
2024/04/20 07:07:34;;;;;;;0.60;0.60;;;;;;;17.22;45.88;101137.59;7398211;19;20567;-58
2024/04/20 07:10:00;;;;;;;0.70;0.70;;;;;;;16.90;46.30;101137.88;7394656;19;20121;-58
2024/04/20 07:12:26;;;;;;;0.55;0.55;;;;;;;16.71;46.61;101136.56;7395215;19;20336;-58
2024/04/20 07:14:52;;;;;;;2.05;1.90;;;;;;;16.72;46.90;101133.25;7394794;19;20107;-58
2024/04/20 07:17:18;;;;;;;0.60;0.60;;;;;;;16.61;47.32;101141.53;7400601;19;20017;-58
2024/04/20 07:19:44;;;;;;;0.68;0.68;;;;;;;16.37;47.75;101147.19;7394821;19;20316;-58
2024/04/20 07:22:11;;;;;;;2.15;1.10;;;;;;;16.41;47.96;101147.81;7393453;19;20586;-58
2024/04/20 07:24:37;;;;;;;0.50;0.50;;;;;;;16.34;48.37;101158.66;7394975;19;20007;-58
2024/04/20 07:27:03;;;;;;;1.05;1.05;;;;;;;16.30;48.46;101149.63;7397480;19;20363;-58
2024/04/20 07:29:29;;;;;;;1.85;0.88;;;;;;;16.13;49.26;101149.34;7395314;19;20459;-58
2024/04/20 07:31:56;;;;;;;1.02;1.02;;;;;;;16.40;48.92;101157.47;7393314;19;20042;-58
2024/04/20 07:34:29;;;;;;;1.88;1.23;;;;;;;16.53;49.19;101160.81;7394933;19;20074;-58
2024/04/20 07:36:59;;;;;;;0.90;0.90;;;;;;;16.61;48.92;101156.34;7397187;19;20417;-58
2024/04/20 07:39:25;;;;;;;1.02;0.90;;;;;;;16.64;49.45;101155.38;7395114;19;20018;-58
2024/04/20 07:41:52;;;;;;;1.10;1.10;;;;;;;16.66;49.41;101155.66;7395341;19;20010;-58
2024/04/20 07:44:19;;;;;;;1.45;1.35;;;;;;;17.51;48.59;101152.88;7392310;19;20021;-58
2024/04/20 07:46:58;;;;;;;0.68;0.65;;;;;;;17.31;48.70;101153.59;7396984;19;20035;-59
2024/04/20 07:49:24;;;;;;;5.18;1.48;;;;;;;17.42;48.69;101156.56;7393124;19;20015;-59
2024/04/20 07:51:50;;;;;;;0.80;0.75;;;;;;;17.65;48.57;101152.03;7393526;19;20022;-58
2024/04/20 07:54:19;;;;;;;2.55;1.00;;;;;;;17.73;49.10;101159.56;7392733;19;20011;-59
2024/04/20 07:56:45;;;;;;;2.53;1.80;;;;;;;18.37;48.49;101155.66;7397567;19;20021;-59
2024/04/20 07:59:12;;;;;;;1.88;0.95;;;;;;;17.95;49.21;101162.63;7392673;19;20011;-59
2024/04/20 08:01:38;;;;;;;0.90;0.90;;;;;;;17.87;49.89;101167.16;7391324;19;20343;-60
2024/04/20 08:04:04;;;;;;;0.75;0.75;;;;;;;18.10;49.80;101159.75;7391943;19;20010;-60
2024/04/20 08:06:30;;;;;;;0.93;0.90;;;;;;;18.32;49.86;101159.97;7394296;19;20033;-60
2024/04/20 08:08:56;;;;;;;1.85;1.35;;;;;;;18.62;49.62;101160.53;7393831;19;20053;-59
2024/04/20 08:11:22;;;;;;;1.83;0.93;;;;;;;18.40;50.41;101154.66;7392672;19;20428;-59
2024/04/20 08:13:49;;;;;;;9.50;1.15;;;;;;;18.63;49.99;101167.72;7394393;19;20019;-59
2024/04/20 08:16:15;;;;;;;1.58;1.17;;;;;;;18.93;49.77;101169.00;7392168;19;20010;-59
2024/04/20 08:18:41;;;;;;;0.73;0.73;;;;;;;19.26;49.14;101172.06;7395496;19;20014;-59
2024/04/20 08:21:07;;;;;;;0.57;0.57;;;;;;;19.54;48.68;101173.03;7392095;19;20396;-59
2024/04/20 08:23:33;;;;;;;1.25;1.05;;;;;;;19.94;47.92;101171.94;7392489;19;20032;-59
2024/04/20 08:25:59;;;;;;;2.05;1.08;;;;;;;19.91;47.89;101166.50;7396406;19;20424;-59
2024/04/20 08:28:25;;;;;;;0.85;0.80;;;;;;;20.04;47.21;101175.28;7393661;19;20014;-58
2024/04/20 08:30:52;;;;;;;2.67;1.40;;;;;;;20.51;47.03;101174.38;7392179;19;20460;-58
2024/04/20 08:33:18;;;;;;;0.75;0.52;;;;;;;20.59;46.07;101171.84;7393524;19;20018;-57
2024/04/20 08:35:44;;;;;;;0.43;0.43;;;;;;;20.67;45.79;101175.69;7393492;19;20073;-57
2024/04/20 08:38:10;;;;;;;1.83;1.73;;;;;;;20.76;45.25;101172.63;7391607;19;20042;-57
2024/04/20 08:40:37;;;;;;;0.57;0.55;;;;;;;20.73;44.85;101168.75;7392329;19;20007;-57
2024/04/20 08:43:04;;;;;;;14.25;1.33;;;;;;;20.78;44.57;101167.22;7393378;19;20015;-56
2024/04/20 08:45:33;;;;;;;0.40;0.40;;;;;;;20.93;44.06;101171.34;7392760;19;20047;-57
2024/04/20 08:48:00;;;;;;;5.78;2.33;;;;;;;21.09;43.45;101169.81;7395201;19;20003;-57
2024/04/20 08:50:29;;;;;;;5.45;1.08;;;;;;;20.80;43.35;101179.56;7389562;19;20010;-57
2024/04/20 08:52:59;;;;;;;0.65;0.65;;;;;;;21.26;42.71;101172.59;7392143;19;20021;-57
2024/04/20 08:55:26;;;;;;;0.70;0.57;;;;;;;21.41;42.73;101178.75;7395602;19;20015;-56
2024/04/20 08:57:52;;;;;;;0.82;0.82;;;;;;;21.69;42.52;101177.38;7391003;19;20010;-56
2024/04/20 09:00:18;;;;;;;0.25;0.25;;;;;;;21.78;42.25;101171.44;7394203;19;20037;-56
2024/04/20 09:02:45;;;;;;;1.52;0.68;;;;;;;21.86;41.81;101172.44;7386769;19;20092;-56
2024/04/20 09:05:12;;;;;;;0.65;0.65;;;;;;;22.08;42.25;101165.91;7385753;19;20013;-56
2024/04/20 09:07:38;;;;;;;0.32;0.32;;;;;;;22.21;40.81;101174.59;7387628;19;20379;-57
2024/04/20 09:10:05;;;;;;;1.00;0.30;;;;;;;22.56;41.05;101176.69;7386409;19;20074;-57
2024/04/20 09:12:31;;;;;;;0.30;0.30;;;;;;;22.74;40.78;101169.63;7386150;19;20718;-56
2024/04/20 09:14:58;;;;;;;4.03;1.40;;;;;;;22.75;40.65;101165.47;7390512;19;20509;-56
2024/04/20 09:17:24;;;;;;;0.30;0.30;;;;;;;23.52;39.65;101164.72;7392233;19;20022;-56
2024/04/20 09:19:55;;;;;;;0.47;0.30;;;;;;;23.76;39.51;101178.94;7389847;19;20038;-56
2024/04/20 09:22:21;;;;;;;0.20;0.20;;;;;;;24.52;39.65;101174.81;7386554;19;20019;-56
2024/04/20 09:24:47;;;;;;;0.50;0.30;;;;;;;24.83;38.08;101176.94;7390043;19;20019;-57
2024/04/20 09:27:14;;;;;;;0.40;0.40;;;;;;;24.95;38.36;101172.56;7386902;19;20013;-57
2024/04/20 09:29:40;;;;;;;0.10;0.10;;;;;;;24.85;38.88;101168.59;7384627;19;20020;-56
2024/04/20 09:32:08;;;;;;;8.20;0.30;;;;;;;24.59;37.58;101171.34;7392444;19;20074;-56
2024/04/20 09:34:36;;;;;;;0.35;0.32;;;;;;;24.44;37.46;101168.19;7390358;19;20082;-57
2024/04/20 09:37:02;;;;;;;0.10;0.10;;;;;;;24.51;37.91;101167.59;7390932;19;20360;-56
2024/04/20 09:39:28;;;;;;;0.28;0.22;;;;;;;24.40;37.70;101171.38;7390695;19;20018;-56
2024/04/20 09:41:55;;;;;;;4.18;0.68;;;;;;;24.28;37.16;101169.97;7391367;19;20010;-57
2024/04/20 09:44:22;;;;;;;5.10;0.30;;;;;;;24.43;37.26;101166.69;7389363;19;20087;-57
2024/04/20 09:46:50;;;;;;;2.17;0.60;;;;;;;24.45;36.74;101175.44;7391867;19;20022;-57
2024/04/20 09:49:16;;;;;;;8.95;0.30;;;;;;;24.65;36.96;101172.00;7388742;19;20023;-56
2024/04/20 09:51:54;;;;;;;1.40;0.60;;;;;;;24.72;35.66;101182.78;7391712;19;20011;-56
2024/04/20 09:54:25;;;;;;;0.20;0.20;;;;;;;24.60;36.31;101184.28;7390522;19;20030;-56
2024/04/20 09:56:54;;;;;;;1.35;0.40;;;;;;;24.29;36.97;101177.22;7390888;19;20054;-56
2024/04/20 09:59:21;;;;;;;5.82;0.43;;;;;;;24.24;36.86;101177.28;7389000;19;20015;-57
2024/04/20 10:01:48;;;;;;;0.28;0.20;;;;;;;24.13;36.56;101188.84;7391259;19;20439;-56
2024/04/20 10:04:14;;;;;;;0.15;0.15;;;;;;;24.83;35.88;101179.78;7388107;19;20087;-56
2024/04/20 10:06:42;;;;;;;2.60;0.65;;;;;;;24.83;36.31;101182.63;7386995;19;20070;-57
2024/04/20 10:09:09;;;;;;;0.57;0.40;;;;;;;24.91;35.94;101186.38;7387765;19;20010;-57
2024/04/20 10:11:37;;;;;;;2.72;0.50;;;;;;;25.06;34.85;101183.78;7390422;19;20011;-56
2024/04/20 10:14:03;;;;;;;2.75;0.10;;;;;;;25.16;34.39;101190.63;7392121;19;20019;-56
2024/04/20 10:16:31;;;;;;;0.28;0.28;;;;;;;24.88;34.50;101178.94;7390651;19;20021;-56
2024/04/20 10:18:57;;;;;;;2.00;0.40;;;;;;;25.05;33.95;101190.03;7393960;19;20074;-57
2024/04/20 10:21:23;;;;;;;0.63;0.13;;;;;;;25.12;33.58;101187.28;7391095;19;20460;-57
2024/04/20 10:23:49;;;;;;;0.30;0.30;;;;;;;25.19;32.87;101180.97;7390270;19;20006;-56
2024/04/20 10:26:29;;;;;;;0.20;0.20;;;;;;;25.18;33.07;101188.00;7388648;19;20014;-56
2024/04/20 10:29:09;;;;;;;0.40;0.17;;;;;;;24.82;33.98;101189.63;7389851;19;20007;-56
2024/04/20 10:31:37;;;;;;;6.25;0.70;;;;;;;25.25;32.71;101184.47;7393901;19;20017;-56
2024/04/20 10:34:03;;;;;;;1.38;0.70;;;;;;;25.29;33.25;101179.22;7396740;19;20038;-57
2024/04/20 10:36:29;;;;;;;2.97;0.28;;;;;;;25.51;33.04;101189.47;7395991;19;20014;-57
2024/04/20 10:39:06;;;;;;;0.40;0.32;;;;;;;25.51;32.38;101183.78;7395021;19;20097;-56
2024/04/20 10:41:39;;;;;;;0.30;0.28;;;;;;;25.48;33.27;101182.78;7400443;19;20067;-56
2024/04/20 10:44:12;;;;;;;0.30;0.25;;;;;;;24.83;34.32;101185.47;7394317;19;20025;-56
2024/04/20 10:46:52;;;;;;;0.30;0.30;;;;;;;24.68;33.50;101185.19;7396517;19;20030;-56
2024/04/20 10:49:20;;;;;;;0.22;0.20;;;;;;;24.61;33.02;101177.25;7395033;19;20472;-56
2024/04/20 10:51:58;;;;;;;0.82;0.38;;;;;;;24.59;32.91;101183.50;7400355;19;20078;-57
2024/04/20 10:54:25;;;;;;;0.55;0.55;;;;;;;24.55;33.16;101182.28;7395418;19;20017;-56
2024/04/20 10:56:53;;;;;;;0.82;0.25;;;;;;;24.69;32.99;101178.94;7394310;19;20011;-56
2024/04/20 10:59:21;;;;;;;4.95;0.52;;;;;;;24.84;32.86;101178.44;7397004;19;20011;-57
2024/04/20 11:01:47;;;;;;;1.02;0.40;;;;;;;24.94;32.40;101188.16;7397363;19;20029;-56
2024/04/20 11:04:14;;;;;;;3.40;0.35;;;;;;;25.20;33.03;101193.91;7393786;19;20036;-56
2024/04/20 11:06:41;;;;;;;0.90;0.50;;;;;;;25.48;32.49;101185.63;7396187;19;20022;-56
2024/04/20 11:09:11;;;;;;;0.10;0.10;;;;;;;25.71;32.08;101182.34;7394479;19;20010;-56
2024/04/20 11:11:38;;;;;;;0.75;0.20;;;;;;;25.42;32.62;101181.34;7400152;19;20021;-56
2024/04/20 11:14:05;;;;;;;0.73;0.40;;;;;;;25.06;33.10;101183.78;7396342;19;20021;-55
2024/04/20 11:16:32;;;;;;;2.88;1.13;;;;;;;25.01;32.54;101181.81;7396437;19;20356;-55
2024/04/20 11:19:00;;;;;;;0.70;0.32;;;;;;;25.38;32.89;101172.31;7391664;19;20016;-55
2024/04/20 11:21:26;;;;;;;5.38;0.55;;;;;;;25.59;32.41;101167.53;7397150;19;20045;-55
2024/04/20 11:23:53;;;;;;;0.47;0.30;;;;;;;25.83;32.58;101175.84;7394616;19;20043;-55